Time;durP1;ratioP1;P1;durP2;ratioP2;P2;SDS_P1;SDS_P2;PMS_P1;PMS_P2;Temp;Humidity;BMP_temperature;BMP_pressure;BME280_temperature;BME280_humidity;BME280_pressure;Samples;Min_cycle;Max_cycle;Signal;HPM_P1;HPM_P2
2022/10/09 00:00:47;;;;;;;1.53;1.40;;;;;;;6.81;100.00;101202.59;5050548;28;20463;-52
2022/10/09 00:03:15;;;;;;;0.83;0.80;;;;;;;6.82;100.00;101204.34;5038879;28;20880;-52
2022/10/09 00:05:43;;;;;;;4.47;0.87;;;;;;;6.69;100.00;101199.03;5037245;28;20487;-52
2022/10/09 00:08:09;;;;;;;0.40;0.30;;;;;;;6.78;100.00;101199.94;5043617;28;20472;-52
2022/10/09 00:10:40;;;;;;;1.67;1.10;;;;;;;6.76;100.00;101199.06;5033444;28;20505;-52
2022/10/09 00:13:07;;;;;;;1.33;0.60;;;;;;;6.58;100.00;101196.41;5034166;28;20460;-52
2022/10/09 00:15:40;;;;;;;0.63;0.63;;;;;;;6.56;100.00;101186.69;5044464;28;20484;-52
2022/10/09 00:18:08;;;;;;;0.70;0.70;;;;;;;6.38;100.00;101191.06;5038890;28;20941;-52
2022/10/09 00:20:36;;;;;;;0.90;0.50;;;;;;;6.27;100.00;101190.13;5040940;28;20491;-52
2022/10/09 00:23:03;;;;;;;0.87;0.50;;;;;;;6.55;100.00;101193.72;5041575;28;20451;-52
2022/10/09 00:25:30;;;;;;;0.63;0.50;;;;;;;6.42;100.00;101202.50;5044100;28;20459;-53
2022/10/09 00:27:57;;;;;;;0.47;0.40;;;;;;;6.43;100.00;101196.34;5040808;28;20555;-52
2022/10/09 00:30:24;;;;;;;2.73;2.63;;;;;;;6.63;100.00;101194.63;5037206;28;20458;-53
2022/10/09 00:32:51;;;;;;;0.60;0.60;;;;;;;6.58;100.00;101198.13;5040216;28;20531;-52
2022/10/09 00:35:18;;;;;;;14.43;1.60;;;;;;;6.33;100.00;101199.84;5043999;28;20886;-52
2022/10/09 00:37:45;;;;;;;0.50;0.43;;;;;;;6.19;100.00;101195.41;5040886;28;20991;-53
2022/10/09 00:40:11;;;;;;;0.67;0.67;;;;;;;6.13;100.00;101199.75;5036909;28;20457;-52
2022/10/09 00:42:37;;;;;;;0.93;0.87;;;;;;;6.08;100.00;101199.75;5040169;28;21003;-53
2022/10/09 00:45:04;;;;;;;0.90;0.70;;;;;;;6.25;100.00;101202.44;5044137;28;20467;-53
2022/10/09 00:47:36;;;;;;;1.03;0.50;;;;;;;6.12;100.00;101203.28;5041075;28;20548;-53
2022/10/09 00:50:22;;;;;;;0.57;0.40;;;;;;;5.99;100.00;101191.78;5037128;28;20451;-53
2022/10/09 00:52:53;;;;;;;1.13;1.13;;;;;;;5.95;100.00;101195.28;5037089;28;20866;-52
2022/10/09 00:55:22;;;;;;;0.90;0.90;;;;;;;5.99;100.00;101194.41;5042259;28;20555;-53
2022/10/09 00:57:49;;;;;;;0.60;0.60;;;;;;;5.92;100.00;101196.16;5043564;28;20533;-53
2022/10/09 01:00:16;;;;;;;0.40;0.40;;;;;;;6.07;100.00;101195.34;5030789;28;20456;-52
2022/10/09 01:02:43;;;;;;;1.47;1.37;;;;;;;6.06;100.00;101190.94;5043817;28;20455;-53
2022/10/09 01:05:10;;;;;;;0.73;0.70;;;;;;;5.99;100.00;101186.50;5040091;28;20463;-53
2022/10/09 01:07:55;;;;;;;1.93;1.83;;;;;;;6.15;100.00;101195.34;5034548;28;20498;-53
2022/10/09 01:10:33;;;;;;;3.20;1.23;;;;;;;6.15;100.00;101196.25;5031320;28;20946;-53
2022/10/09 01:13:22;;;;;;;0.40;0.30;;;;;;;6.07;100.00;101190.06;5022369;28;20498;-53
2022/10/09 01:16:00;;;;;;;4.00;0.60;;;;;;;5.99;100.00;101194.41;5043567;28;20448;-52
2022/10/09 01:18:47;;;;;;;0.60;0.60;;;;;;;5.73;100.00;101193.38;5033055;28;20475;-53
2022/10/09 01:21:24;;;;;;;0.53;0.40;;;;;;;5.74;100.00;101189.84;5035819;28;20512;-52
2022/10/09 01:24:15;;;;;;;1.43;1.17;;;;;;;5.74;100.00;101189.84;5036231;28;20444;-53
2022/10/09 01:27:08;;;;;;;0.60;0.60;;;;;;;5.73;100.00;101185.44;5037037;28;20618;-52
2022/10/09 01:29:39;;;;;;;0.50;0.50;;;;;;;5.84;100.00;101187.28;5009743;28;20451;-53
2022/10/09 01:32:09;;;;;;;0.60;0.60;;;;;;;5.80;100.00;101187.25;5041923;28;20956;-53
2022/10/09 01:34:37;;;;;;;1.20;0.77;;;;;;;5.70;100.00;101178.41;5039408;28;20451;-53
2022/10/09 01:37:05;;;;;;;2.20;1.13;;;;;;;5.74;100.00;101174.91;5043101;28;20455;-53
2022/10/09 01:39:34;;;;;;;0.53;0.43;;;;;;;5.94;100.00;101177.69;5036983;28;20911;-53
2022/10/09 01:42:01;;;;;;;0.80;0.53;;;;;;;5.90;100.00;101183.84;5041349;28;21003;-53
2022/10/09 01:44:30;;;;;;;0.43;0.37;;;;;;;5.87;100.00;101176.72;5040591;28;20504;-52
2022/10/09 01:46:57;;;;;;;3.27;0.50;;;;;;;6.02;100.00;101172.44;5035997;28;20918;-52
2022/10/09 01:49:53;;;;;;;0.90;0.90;;;;;;;5.76;100.00;101174.94;5037327;28;20514;-53
2022/10/09 01:52:31;;;;;;;0.50;0.50;;;;;;;5.53;100.00;101165.13;4998169;28;20456;-53
2022/10/09 01:55:07;;;;;;;0.90;0.73;;;;;;;5.59;100.00;101164.28;5042627;28;20928;-53
2022/10/09 01:58:01;;;;;;;1.23;0.67;;;;;;;5.46;100.00;101159.78;5041290;28;20486;-53
2022/10/09 02:00:32;;;;;;;0.60;0.60;;;;;;;5.48;100.00;101155.41;5030267;28;20455;-52
2022/10/09 02:03:01;;;;;;;3.60;0.40;;;;;;;5.55;100.00;101152.84;5034139;28;20490;-53
2022/10/09 02:05:29;;;;;;;0.40;0.30;;;;;;;5.44;100.00;101145.72;5035946;28;20470;-52
2022/10/09 02:07:57;;;;;;;0.90;0.80;;;;;;;5.62;100.00;101149.38;5042568;28;20858;-53
2022/10/09 02:10:24;;;;;;;0.90;0.50;;;;;;;5.70;100.00;101136.22;5029090;28;20456;-52
2022/10/09 02:12:59;;;;;;;0.50;0.43;;;;;;;5.78;100.00;101141.53;5037245;28;20501;-52
2022/10/09 02:15:33;;;;;;;0.73;0.70;;;;;;;5.74;100.00;101150.28;5036406;28;20450;-52
2022/10/09 02:18:07;;;;;;;2.77;0.80;;;;;;;5.67;100.00;101144.09;5024493;28;20893;-52
2022/10/09 02:20:38;;;;;;;0.90;0.90;;;;;;;5.48;100.00;101143.13;5038353;28;20467;-53
2022/10/09 02:23:08;;;;;;;0.50;0.50;;;;;;;5.48;100.00;101148.41;5038463;28;20455;-53
2022/10/09 02:25:34;;;;;;;0.40;0.30;;;;;;;5.45;100.00;101150.13;5042229;28;20455;-53
2022/10/09 02:28:02;;;;;;;1.03;0.43;;;;;;;5.35;100.00;101149.22;5036319;28;20495;-53
2022/10/09 02:30:42;;;;;;;0.50;0.50;;;;;;;5.13;100.00;101136.75;5038145;28;21128;-53
2022/10/09 02:33:09;;;;;;;5.80;0.57;;;;;;;5.25;100.00;101137.72;5036799;28;20458;-53
2022/10/09 02:35:37;;;;;;;1.40;1.40;;;;;;;5.10;100.00;101142.00;5040743;28;20451;-53
2022/10/09 02:38:03;;;;;;;0.30;0.20;;;;;;;5.19;100.00;101139.41;5029011;28;20475;-52
2022/10/09 02:40:30;;;;;;;0.57;0.53;;;;;;;5.25;100.00;101142.09;5040926;28;20462;-52
2022/10/09 02:42:56;;;;;;;0.63;0.60;;;;;;;5.29;100.00;101147.41;5036927;28;20908;-53
2022/10/09 02:45:22;;;;;;;0.83;0.80;;;;;;;5.34;100.00;101139.50;5042052;28;20921;-52
2022/10/09 02:47:49;;;;;;;0.90;0.90;;;;;;;5.15;100.00;101140.25;5041253;28;20502;-53
2022/10/09 02:50:15;;;;;;;0.77;0.77;;;;;;;5.13;100.00;101131.47;5035047;28;20454;-52
2022/10/09 02:52:41;;;;;;;0.73;0.73;;;;;;;5.04;100.00;101137.53;5035933;28;20447;-53
2022/10/09 02:55:08;;;;;;;0.50;0.50;;;;;;;4.81;100.00;101142.66;5041920;28;20968;-52
2022/10/09 03:00:04;;;;;;;0.50;0.40;;;;;;;5.02;100.00;101136.66;4929404;29;20486;-57
2022/10/09 03:02:30;;;;;;;0.57;0.50;;;;;;;5.01;100.00;101135.78;4935911;29;20456;-57
2022/10/09 03:04:57;;;;;;;1.70;1.70;;;;;;;4.85;100.00;101128.63;4935910;29;20534;-57
2022/10/09 03:07:24;;;;;;;0.43;0.40;;;;;;;4.94;100.00;101117.28;4935851;29;20558;-56
2022/10/09 03:09:50;;;;;;;0.90;0.90;;;;;;;4.91;100.00;101120.75;4933038;29;21028;-57
2022/10/09 03:12:20;;;;;;;0.63;0.63;;;;;;;4.76;100.00;101128.53;4924057;29;20489;-57
2022/10/09 03:14:46;;;;;;;0.80;0.77;;;;;;;4.82;100.00;101125.97;4929322;29;21067;-57
2022/10/09 03:17:12;;;;;;;0.47;0.33;;;;;;;4.83;100.00;101117.19;4922760;29;20469;-57
2022/10/09 03:19:39;;;;;;;1.20;1.10;;;;;;;4.76;100.00;101118.00;4905358;29;20481;-57
2022/10/09 03:22:05;;;;;;;0.60;0.40;;;;;;;4.82;100.00;101122.47;4929388;29;20519;-56
2022/10/09 03:24:32;;;;;;;0.50;0.47;;;;;;;4.89;100.00;101122.50;4916511;29;20512;-57
2022/10/09 03:26:58;;;;;;;0.40;0.40;;;;;;;4.80;100.00;101117.19;4929693;29;20593;-56
2022/10/09 03:29:24;;;;;;;0.50;0.40;;;;;;;4.70;100.00;101124.13;4919891;29;20548;-57
2022/10/09 03:31:51;;;;;;;0.40;0.40;;;;;;;4.78;100.00;101129.44;4929504;29;20483;-57
2022/10/09 03:34:19;;;;;;;0.40;0.30;;;;;;;4.82;100.00;101130.34;4925202;29;20460;-56
2022/10/09 03:36:45;;;;;;;1.50;1.03;;;;;;;4.75;100.00;101132.94;4922916;29;20874;-56
2022/10/09 03:39:12;;;;;;;1.70;0.87;;;;;;;4.74;100.00;101125.00;4932718;29;20984;-56
2022/10/09 03:41:38;;;;;;;0.80;0.60;;;;;;;4.66;100.00;101124.06;4929113;29;20507;-57
2022/10/09 03:44:04;;;;;;;0.40;0.30;;;;;;;4.64;100.00;101131.06;4924610;29;20991;-56
2022/10/09 03:46:31;;;;;;;0.60;0.57;;;;;;;4.76;100.00;101134.69;4922150;29;20496;-56
2022/10/09 03:48:57;;;;;;;0.40;0.40;;;;;;;4.80;100.00;101139.97;4925919;29;20473;-57
2022/10/09 03:51:23;;;;;;;0.60;0.40;;;;;;;4.65;100.00;101138.09;4928948;29;20459;-56
2022/10/09 03:53:50;;;;;;;0.90;0.40;;;;;;;4.56;100.00;101132.75;4924231;29;20767;-56
2022/10/09 03:56:16;;;;;;;0.43;0.40;;;;;;;4.53;100.00;101127.47;4921670;29;20461;-56
2022/10/09 03:58:43;;;;;;;0.40;0.30;;;;;;;4.51;100.00;101130.06;4927126;29;20495;-56
2022/10/09 04:01:09;;;;;;;0.83;0.83;;;;;;;4.53;100.00;101133.63;4948050;29;20471;-56
2022/10/09 04:03:36;;;;;;;0.50;0.50;;;;;;;4.47;100.00;101134.41;4944083;29;20459;-57
2022/10/09 04:06:02;;;;;;;0.40;0.30;;;;;;;4.28;100.00;101140.38;4941452;28;21021;-56
2022/10/09 04:08:29;;;;;;;0.40;0.40;;;;;;;4.32;100.00;101147.44;4951417;28;20506;-56
2022/10/09 04:10:57;;;;;;;13.80;0.60;;;;;;;4.53;100.00;101140.63;4950424;28;20470;-57
2022/10/09 04:13:23;;;;;;;0.67;0.67;;;;;;;4.39;100.00;101141.38;4941128;29;20468;-57
2022/10/09 04:15:51;;;;;;;1.40;0.57;;;;;;;4.51;100.00;101139.72;4947682;29;20460;-58
2022/10/09 04:18:18;;;;;;;0.50;0.47;;;;;;;4.55;100.00;101138.91;4944976;29;20542;-57
2022/10/09 04:20:52;;;;;;;0.83;0.83;;;;;;;4.43;100.00;101129.13;4942195;28;20475;-56
2022/10/09 04:23:20;;;;;;;14.33;0.63;;;;;;;4.41;100.00;101130.88;4943103;28;20456;-56
2022/10/09 04:25:46;;;;;;;0.97;0.97;;;;;;;4.34;100.00;101131.66;4940446;29;20459;-56
2022/10/09 04:28:12;;;;;;;6.07;0.30;;;;;;;4.39;100.00;101137.88;4942334;28;20521;-57
2022/10/09 04:30:39;;;;;;;0.80;0.53;;;;;;;4.59;100.00;101141.56;4943276;29;20459;-56
2022/10/09 04:33:05;;;;;;;2.93;2.63;;;;;;;4.27;100.00;101127.22;4941249;29;20453;-57
2022/10/09 04:35:47;;;;;;;8.23;0.93;;;;;;;4.22;100.00;101142.91;4927709;29;20470;-56
2022/10/09 04:38:14;;;;;;;0.50;0.50;;;;;;;4.17;100.00;101139.38;4940473;28;20471;-56
2022/10/09 04:40:40;;;;;;;1.87;0.60;;;;;;;4.21;100.00;101135.91;4946824;28;20460;-56
2022/10/09 04:43:07;;;;;;;0.60;0.50;;;;;;;4.20;100.00;101134.13;4940044;28;20460;-56
2022/10/09 04:45:38;;;;;;;0.40;0.20;;;;;;;4.26;100.00;101128.06;4945283;28;20467;-56
2022/10/09 04:48:04;;;;;;;0.67;0.67;;;;;;;4.35;100.00;101128.16;4934612;29;21032;-57
2022/10/09 04:50:31;;;;;;;1.97;0.70;;;;;;;4.35;100.00;101134.28;4949143;28;20537;-56
2022/10/09 04:52:57;;;;;;;2.00;0.83;;;;;;;4.25;100.00;101134.19;4940050;29;20523;-56
2022/10/09 04:55:24;;;;;;;0.67;0.50;;;;;;;4.10;100.00;101130.50;4944414;28;20801;-57
2022/10/09 04:57:50;;;;;;;0.57;0.57;;;;;;;4.18;100.00;101132.34;4944472;29;20531;-56
2022/10/09 05:00:17;;;;;;;0.40;0.30;;;;;;;4.18;100.00;101129.72;4940411;28;20552;-56
2022/10/09 05:02:43;;;;;;;0.50;0.37;;;;;;;4.37;100.00;101131.69;4941022;29;20468;-56
2022/10/09 05:05:09;;;;;;;0.90;0.40;;;;;;;4.43;100.00;101129.13;4943770;28;20464;-56
2022/10/09 05:07:37;;;;;;;0.53;0.40;;;;;;;4.11;100.00;101134.03;4946225;29;20547;-57
2022/10/09 05:10:05;;;;;;;2.20;1.53;;;;;;;4.12;100.00;101138.44;4938455;29;20467;-57
2022/10/09 05:12:31;;;;;;;14.80;2.50;;;;;;;4.06;100.00;101133.09;4945173;29;20459;-57
2022/10/09 05:14:58;;;;;;;0.50;0.40;;;;;;;3.88;100.00;101135.53;4935462;29;20460;-57
2022/10/09 05:17:24;;;;;;;0.50;0.50;;;;;;;3.74;100.00;101132.72;4939760;29;20463;-57
2022/10/09 05:19:51;;;;;;;0.40;0.30;;;;;;;3.76;100.00;101137.13;4935341;29;20483;-56
2022/10/09 05:22:17;;;;;;;1.80;0.50;;;;;;;3.79;100.00;101138.91;4947240;29;20487;-59
2022/10/09 05:24:43;;;;;;;0.90;0.43;;;;;;;3.89;100.00;101138.16;4944286;29;20554;-56
2022/10/09 05:27:10;;;;;;;0.30;0.20;;;;;;;3.92;100.00;101139.94;4949976;28;20523;-58
2022/10/09 05:29:36;;;;;;;0.30;0.20;;;;;;;3.96;100.00;101136.47;4942507;29;20908;-56
2022/10/09 05:32:02;;;;;;;0.40;0.30;;;;;;;3.94;100.00;101135.59;4939537;28;20463;-57
2022/10/09 05:34:29;;;;;;;2.37;1.13;;;;;;;3.97;100.00;101135.63;4945654;28;20510;-56
2022/10/09 05:36:55;;;;;;;7.17;0.63;;;;;;;3.85;100.00;101139.00;4939474;28;20455;-57
2022/10/09 05:39:22;;;;;;;0.60;0.60;;;;;;;3.93;100.00;101136.44;4941800;28;20479;-57
2022/10/09 05:41:48;;;;;;;1.53;0.40;;;;;;;4.05;100.00;101136.59;4933495;29;20463;-57
2022/10/09 05:44:15;;;;;;;6.03;0.93;;;;;;;3.99;100.00;101142.69;4932318;29;20463;-56
2022/10/09 05:46:41;;;;;;;0.30;0.20;;;;;;;3.80;100.00;101146.81;4943455;29;20546;-56
2022/10/09 05:49:09;;;;;;;1.50;1.40;;;;;;;3.97;100.00;101143.50;4936303;29;20500;-56
2022/10/09 05:51:37;;;;;;;6.57;0.60;;;;;;;4.00;100.00;101148.81;4940531;29;21051;-57
2022/10/09 05:54:05;;;;;;;0.40;0.40;;;;;;;4.11;100.00;101145.47;4942303;29;20480;-58
2022/10/09 05:56:35;;;;;;;0.40;0.20;;;;;;;3.94;100.00;101147.00;4934489;29;20468;-57
2022/10/09 05:59:07;;;;;;;0.30;0.20;;;;;;;3.95;100.00;101145.25;4932415;29;21013;-57
2022/10/09 06:01:38;;;;;;;0.87;0.73;;;;;;;3.94;100.00;101147.00;4935829;29;20460;-57
2022/10/09 06:04:09;;;;;;;0.40;0.30;;;;;;;3.94;100.00;101146.09;4940720;29;20448;-58
2022/10/09 06:06:37;;;;;;;1.40;0.80;;;;;;;3.97;100.00;101143.50;4940918;29;20464;-58
2022/10/09 06:09:04;;;;;;;0.40;0.30;;;;;;;3.88;100.00;101143.41;4949254;28;20857;-57
2022/10/09 06:11:34;;;;;;;1.07;1.07;;;;;;;4.05;100.00;101150.63;4938611;29;20451;-57
2022/10/09 06:14:02;;;;;;;1.80;1.70;;;;;;;4.13;100.00;101150.75;4938347;29;20535;-57
2022/10/09 06:16:31;;;;;;;1.90;0.90;;;;;;;4.18;100.00;101146.41;4944421;28;20508;-58
2022/10/09 06:18:58;;;;;;;0.63;0.63;;;;;;;4.28;100.00;101152.66;4938299;29;20468;-58
2022/10/09 06:21:26;;;;;;;2.30;2.10;;;;;;;4.42;100.00;101143.16;4943777;28;20460;-58
2022/10/09 06:23:55;;;;;;;1.47;0.80;;;;;;;4.43;100.00;101145.78;4945901;29;20463;-58
2022/10/09 06:26:22;;;;;;;0.73;0.73;;;;;;;4.47;100.00;101139.69;4922887;29;20783;-57
2022/10/09 06:28:49;;;;;;;0.60;0.60;;;;;;;4.54;100.00;101145.91;4941752;29;20532;-58
2022/10/09 06:31:19;;;;;;;1.73;1.63;;;;;;;4.56;100.00;101146.81;4940163;29;20546;-58
2022/10/09 06:33:48;;;;;;;0.93;0.93;;;;;;;4.80;100.00;101148.78;4933817;29;20464;-57
2022/10/09 06:36:23;;;;;;;0.60;0.60;;;;;;;4.82;100.00;101156.69;4935188;29;20452;-57
2022/10/09 06:38:50;;;;;;;1.10;1.03;;;;;;;4.93;100.00;101131.31;4943953;29;20463;-58
2022/10/09 06:41:19;;;;;;;1.60;1.50;;;;;;;4.89;100.00;101134.78;4947996;28;20506;-57
2022/10/09 06:43:51;;;;;;;0.63;0.63;;;;;;;5.00;100.00;101130.50;4938815;28;20458;-57
2022/10/09 06:46:19;;;;;;;0.80;0.80;;;;;;;4.94;100.00;101131.34;4939141;28;20523;-57
2022/10/09 06:48:45;;;;;;;1.97;1.87;;;;;;;5.13;100.00;101144.66;4945188;28;20859;-57
2022/10/09 06:51:15;;;;;;;0.57;0.53;;;;;;;5.20;100.00;101138.53;4945314;29;20510;-58
2022/10/09 06:53:47;;;;;;;4.30;0.80;;;;;;;5.43;100.00;101136.94;4940701;29;20514;-58
2022/10/09 06:56:15;;;;;;;0.83;0.80;;;;;;;5.55;100.00;101134.38;4948700;28;20455;-58
2022/10/09 06:58:42;;;;;;;3.20;1.90;;;;;;;5.56;100.00;101141.41;4940890;29;20487;-57
2022/10/09 07:01:11;;;;;;;1.63;1.37;;;;;;;5.70;100.00;101130.94;4938672;28;20463;-57
2022/10/09 07:03:39;;;;;;;0.40;0.37;;;;;;;5.67;100.00;101141.47;4950583;28;20455;-58
2022/10/09 07:06:07;;;;;;;1.00;1.00;;;;;;;5.81;100.00;101137.13;4938419;28;20459;-57
2022/10/09 07:08:35;;;;;;;0.90;0.90;;;;;;;5.88;100.00;101144.19;4932842;29;21001;-56
2022/10/09 07:11:20;;;;;;;1.03;1.03;;;;;;;5.90;100.00;101136.34;4934383;29;20521;-57
2022/10/09 07:13:48;;;;;;;1.47;0.90;;;;;;;5.85;100.00;101145.94;4934395;29;20580;-57
2022/10/09 07:16:19;;;;;;;1.43;1.33;;;;;;;5.82;100.00;101146.81;4938461;29;20538;-57
2022/10/09 07:18:46;;;;;;;1.37;0.93;;;;;;;5.95;100.00;101145.16;4932115;29;20472;-56
2022/10/09 07:21:13;;;;;;;3.37;1.23;;;;;;;6.22;100.00;101145.25;4942985;28;20508;-56
2022/10/09 07:23:39;;;;;;;2.43;2.33;;;;;;;6.41;100.00;101145.28;4931927;29;20953;-57
2022/10/09 07:26:11;;;;;;;3.13;0.87;;;;;;;6.52;100.00;101139.16;4946009;28;20518;-57
2022/10/09 07:28:39;;;;;;;0.63;0.63;;;;;;;6.54;100.00;101142.66;4947672;29;20522;-56
2022/10/09 07:31:06;;;;;;;0.90;0.90;;;;;;;6.47;100.00;101140.91;4936519;29;20507;-59
2022/10/09 07:33:32;;;;;;;1.17;1.07;;;;;;;6.65;100.00;101142.69;4933894;29;20460;-59
2022/10/09 07:36:01;;;;;;;3.50;1.83;;;;;;;6.75;100.00;101147.09;4932796;28;20519;-57
2022/10/09 07:38:28;;;;;;;0.93;0.90;;;;;;;6.83;100.00;101131.25;4943950;29;20472;-59
2022/10/09 07:41:03;;;;;;;1.17;1.13;;;;;;;6.94;100.00;101129.50;4926174;29;20452;-56
2022/10/09 07:43:30;;;;;;;0.90;0.53;;;;;;;7.06;100.00;101139.19;4948597;28;20490;-56
2022/10/09 07:45:58;;;;;;;9.47;1.43;;;;;;;7.08;100.00;101138.28;4938523;28;20472;-58
2022/10/09 07:48:25;;;;;;;1.00;1.00;;;;;;;7.25;100.00;101138.25;4945077;29;20925;-55
2022/10/09 07:50:51;;;;;;;0.90;0.90;;;;;;;7.30;100.00;101128.59;4942702;28;20456;-56
2022/10/09 07:53:18;;;;;;;1.70;1.20;;;;;;;7.47;100.00;101125.00;4935897;29;20460;-56
2022/10/09 07:55:46;;;;;;;0.53;0.53;;;;;;;7.56;100.00;101122.34;4934973;29;20467;-57
2022/10/09 07:58:14;;;;;;;1.67;0.63;;;;;;;7.70;100.00;101124.06;4945547;29;20537;-56
2022/10/09 08:00:41;;;;;;;3.03;1.57;;;;;;;7.67;100.00;101125.81;4951314;28;20896;-56
2022/10/09 08:03:08;;;;;;;1.17;1.07;;;;;;;7.82;100.00;101117.84;4935588;28;20456;-56
2022/10/09 08:05:34;;;;;;;3.13;1.47;;;;;;;7.91;100.00;101117.81;4939615;29;20455;-57
2022/10/09 08:08:01;;;;;;;0.73;0.73;;;;;;;8.04;100.00;101121.28;4946671;29;20499;-55
2022/10/09 08:10:29;;;;;;;16.00;1.53;;;;;;;7.98;100.00;101116.91;4934914;29;20527;-57
2022/10/09 08:12:56;;;;;;;1.33;1.23;;;;;;;8.13;100.00;101105.34;4941414;29;20940;-56
2022/10/09 08:15:22;;;;;;;5.60;0.83;;;;;;;8.21;100.00;101100.88;4936917;29;20511;-56
2022/10/09 08:17:51;;;;;;;1.63;1.53;;;;;;;8.49;100.00;101103.38;4948537;29;21035;-57
2022/10/09 08:20:17;;;;;;;1.10;1.10;;;;;;;8.38;100.00;101105.25;4940405;28;20527;-57
2022/10/09 08:22:44;;;;;;;1.73;1.63;;;;;;;8.49;100.00;101106.03;4947191;28;20974;-58
2022/10/09 08:25:10;;;;;;;6.27;1.30;;;;;;;8.57;100.00;101102.44;4939096;29;20863;-57
2022/10/09 08:27:37;;;;;;;2.10;1.10;;;;;;;8.96;100.00;101103.00;4947605;28;20490;-57
2022/10/09 08:30:03;;;;;;;1.50;1.30;;;;;;;9.02;100.00;101105.59;4938621;28;20468;-57
2022/10/09 08:32:30;;;;;;;1.67;1.57;;;;;;;9.13;100.00;101097.53;4950281;28;20943;-58
2022/10/09 08:34:56;;;;;;;2.43;2.23;;;;;;;9.54;100.00;101097.13;4940364;28;20460;-57
2022/10/09 08:37:22;;;;;;;1.80;1.43;;;;;;;9.33;100.00;101098.25;4948272;28;20472;-57
2022/10/09 08:39:49;;;;;;;4.10;1.93;;;;;;;9.32;100.00;101095.56;4936191;28;20476;-56
2022/10/09 08:42:26;;;;;;;1.17;1.10;;;;;;;9.65;100.00;101094.34;4937386;28;20468;-56
2022/10/09 08:44:53;;;;;;;23.27;1.10;;;;;;;10.09;100.00;101093.78;4946220;29;20451;-57
2022/10/09 08:47:44;;;;;;;0.80;0.80;;;;;;;10.11;100.00;101091.97;4940839;29;20816;-56
2022/10/09 08:50:28;;;;;;;0.60;0.57;;;;;;;10.57;100.00;101089.56;4940085;28;20864;-57
2022/10/09 08:53:19;;;;;;;1.53;1.43;;;;;;;10.39;100.00;101081.84;4937676;29;20504;-56
2022/10/09 08:55:52;;;;;;;1.40;1.30;;;;;;;10.74;100.00;101088.41;4944813;29;20486;-57
2022/10/09 08:58:20;;;;;;;8.47;1.20;;;;;;;10.80;100.00;101082.97;4939945;28;20542;-57
2022/10/09 09:00:58;;;;;;;6.93;0.97;;;;;;;10.82;100.00;101070.53;4940528;28;20477;-57
2022/10/09 09:03:41;;;;;;;2.10;2.00;;;;;;;11.09;100.00;101058.53;4928461;29;20455;-57
2022/10/09 09:06:16;;;;;;;1.07;0.97;;;;;;;11.43;100.00;101062.31;4939248;28;20447;-58
2022/10/09 09:09:20;;;;;;;1.80;1.70;;;;;;;11.42;100.00;101057.91;4952375;28;20522;-57
2022/10/09 09:11:50;;;;;;;1.20;1.20;;;;;;;11.59;100.00;101049.56;4942972;29;20511;-57
2022/10/09 09:14:31;;;;;;;0.80;0.80;;;;;;;11.75;100.00;101045.66;4942545;29;20455;-57
2022/10/09 09:17:11;;;;;;;1.43;1.17;;;;;;;11.76;100.00;101043.88;4939422;28;20930;-56
2022/10/09 09:19:56;;;;;;;1.33;1.23;;;;;;;12.15;99.82;101040.38;4933508;29;20502;-57
2022/10/09 09:22:23;;;;;;;3.20;1.23;;;;;;;12.26;99.54;101042.81;4936927;29;20459;-58
2022/10/09 09:24:55;;;;;;;1.20;1.00;;;;;;;12.26;100.00;101039.25;4941842;28;20532;-57
2022/10/09 09:27:35;;;;;;;10.53;1.47;;;;;;;12.47;99.39;101046.72;4945935;29;20452;-57
2022/10/09 09:30:11;;;;;;;1.73;1.20;;;;;;;12.45;98.77;101044.09;4945645;29;20549;-57
2022/10/09 09:33:12;;;;;;;2.10;2.00;;;;;;;12.70;98.13;101036.38;4940990;29;20463;-57
2022/10/09 09:35:56;;;;;;;1.90;1.10;;;;;;;12.53;98.03;101037.72;4945592;28;20459;-57
2022/10/09 09:38:22;;;;;;;1.50;1.40;;;;;;;12.69;97.84;101033.75;4945665;29;20479;-58
2022/10/09 09:40:49;;;;;;;1.50;1.40;;;;;;;12.97;97.14;101028.56;4941828;29;20462;-57
2022/10/09 09:43:22;;;;;;;0.67;0.67;;;;;;;13.15;96.47;101028.06;4935818;28;20476;-57
2022/10/09 09:45:52;;;;;;;7.90;1.67;;;;;;;13.39;95.92;101023.00;4932321;29;20516;-57
2022/10/09 09:48:25;;;;;;;2.10;2.00;;;;;;;13.58;94.58;101019.78;4945056;29;21002;-57
2022/10/09 09:50:53;;;;;;;9.70;1.10;;;;;;;13.38;95.87;101011.44;4944381;29;20451;-57
2022/10/09 09:53:42;;;;;;;5.53;1.60;;;;;;;13.50;95.08;101005.75;4922013;29;20456;-57
2022/10/09 09:56:09;;;;;;;7.07;1.93;;;;;;;13.46;95.10;101003.22;4945380;29;20455;-56
2022/10/09 09:58:44;;;;;;;2.70;1.70;;;;;;;13.23;96.08;100999.41;4941738;29;20479;-57
2022/10/09 10:01:20;;;;;;;5.60;2.30;;;;;;;13.66;95.23;100995.50;4938786;28;20458;-57
2022/10/09 10:03:49;;;;;;;1.67;1.57;;;;;;;13.49;95.96;100987.13;4940132;28;20542;-57
2022/10/09 10:06:20;;;;;;;1.63;1.30;;;;;;;13.83;94.76;100985.16;4945337;28;20461;-57
2022/10/09 10:09:12;;;;;;;2.73;1.30;;;;;;;14.05;94.76;100984.50;4943408;29;20932;-57
2022/10/09 10:11:45;;;;;;;11.00;1.97;;;;;;;14.29;93.34;100978.38;4941693;29;20464;-57
2022/10/09 10:14:14;;;;;;;3.83;1.17;;;;;;;14.02;91.31;100981.94;4941671;29;20447;-57
2022/10/09 10:16:42;;;;;;;1.77;1.17;;;;;;;14.17;91.29;100981.44;4941993;29;20456;-57
2022/10/09 10:19:24;;;;;;;3.17;1.83;;;;;;;14.34;90.80;100970.19;4944060;29;20476;-57
2022/10/09 10:21:59;;;;;;;2.70;0.80;;;;;;;14.29;90.99;100969.47;4944334;29;20455;-57
2022/10/09 10:24:37;;;;;;;1.13;1.00;;;;;;;14.58;90.27;100969.41;4944546;28;20887;-57
2022/10/09 10:27:24;;;;;;;5.40;2.13;;;;;;;14.76;89.38;100957.19;4944648;29;20458;-57
2022/10/09 10:29:56;;;;;;;6.30;1.83;;;;;;;14.94;89.10;100961.91;4943301;29;21020;-57
2022/10/09 10:32:31;;;;;;;9.17;2.20;;;;;;;14.78;87.51;100956.19;4938118;28;20447;-56
2022/10/09 10:35:10;;;;;;;3.63;1.63;;;;;;;14.77;87.97;100957.13;4938234;29;20448;-57
2022/10/09 10:37:39;;;;;;;1.80;1.33;;;;;;;14.78;87.95;100947.28;4943521;28;20976;-56
2022/10/09 10:40:26;;;;;;;1.00;1.00;;;;;;;15.04;88.50;100939.19;4944688;29;21020;-56
2022/10/09 10:43:01;;;;;;;0.90;0.90;;;;;;;14.96;88.39;100941.31;4931933;29;20459;-56
2022/10/09 10:45:48;;;;;;;1.40;1.30;;;;;;;15.23;87.46;100931.38;4925654;29;20455;-56
2022/10/09 10:48:21;;;;;;;0.93;0.90;;;;;;;15.22;86.31;100931.44;4937623;28;20479;-56
2022/10/09 10:51:00;;;;;;;2.30;1.70;;;;;;;15.30;86.23;100932.88;4940671;28;20954;-56
2022/10/09 10:53:41;;;;;;;2.13;0.73;;;;;;;15.08;86.17;100927.47;4944784;29;20452;-56
2022/10/09 10:56:27;;;;;;;8.33;1.50;;;;;;;15.35;87.17;100920.22;4944737;29;20506;-56
2022/10/09 10:59:31;;;;;;;1.30;1.20;;;;;;;15.50;85.50;100916.06;4941909;29;20483;-57
2022/10/09 11:02:21;;;;;;;4.57;1.17;;;;;;;15.46;84.67;100909.06;4934876;28;20470;-57
2022/10/09 11:05:07;;;;;;;0.90;0.70;;;;;;;15.73;83.20;100915.16;4944512;29;20974;-56
2022/10/09 11:08:01;;;;;;;6.03;1.07;;;;;;;15.68;83.55;100907.31;4944441;29;20817;-57
2022/10/09 11:10:58;;;;;;;1.07;1.03;;;;;;;15.88;83.73;100903.81;4943180;29;20957;-56
2022/10/09 11:13:46;;;;;;;8.67;0.80;;;;;;;15.57;82.85;100895.25;4941431;28;20456;-56
2022/10/09 11:16:36;;;;;;;1.50;1.07;;;;;;;15.59;83.22;100886.25;4944471;29;20456;-56
2022/10/09 11:19:21;;;;;;;2.50;1.07;;;;;;;15.73;81.42;100890.19;4950147;29;21121;-56
2022/10/09 11:22:29;;;;;;;2.30;1.37;;;;;;;16.02;81.06;100886.31;4942318;28;20460;-56
2022/10/09 11:25:20;;;;;;;4.80;1.20;;;;;;;16.14;80.57;100872.38;4924179;29;20519;-56
2022/10/09 11:27:58;;;;;;;1.33;0.90;;;;;;;16.12;80.03;100868.91;4942626;29;20879;-57
2022/10/09 11:30:28;;;;;;;1.50;1.40;;;;;;;16.16;80.66;100857.97;4941704;28;20501;-56
2022/10/09 11:33:20;;;;;;;5.93;2.50;;;;;;;16.61;80.44;100864.13;4944464;28;20645;-56
2022/10/09 11:35:54;;;;;;;1.20;1.10;;;;;;;16.18;79.66;100858.78;4942728;29;20485;-56
2022/10/09 11:38:30;;;;;;;9.53;0.90;;;;;;;16.31;80.34;100859.16;4940583;28;20484;-56
2022/10/09 11:40:57;;;;;;;2.17;0.90;;;;;;;16.48;79.17;100853.03;4944356;28;20555;-56
2022/10/09 11:43:27;;;;;;;1.07;0.97;;;;;;;16.54;77.60;100842.03;4946785;29;20459;-57
2022/10/09 11:46:27;;;;;;;7.13;0.73;;;;;;;16.67;77.12;100840.56;4945453;29;20835;-56